createdAt,value
2022-09-20T00:00:52.948Z,96.51
2022-09-20T00:03:21.803Z,96.67
2022-09-20T00:05:49.391Z,97.02
2022-09-20T00:08:17.399Z,97.62
2022-09-20T00:10:44.918Z,97.80
2022-09-20T00:13:14.481Z,97.80
2022-09-20T00:15:43.836Z,97.51
2022-09-20T00:18:12.363Z,97.83
2022-09-20T00:20:47.192Z,98.35
2022-09-20T00:23:15.131Z,97.58
2022-09-20T00:25:43.437Z,96.84
2022-09-20T00:28:11.708Z,97.41
2022-09-20T00:30:39.889Z,96.34
2022-09-20T00:33:07.500Z,96.31
2022-09-20T00:35:34.089Z,96.35
2022-09-20T00:38:02.962Z,96.13
2022-09-20T00:40:30.611Z,96.18
2022-09-20T00:42:58.203Z,96.56
2022-09-20T00:45:27.417Z,95.85
2022-09-20T00:47:59.463Z,95.90
2022-09-20T00:50:35.390Z,95.88
2022-09-20T00:53:10.274Z,96.42
2022-09-20T00:55:40.991Z,96.77
2022-09-20T00:58:09.443Z,96.86
2022-09-20T01:00:38.632Z,96.73
2022-09-20T01:03:09.368Z,96.22
2022-09-20T01:05:38.897Z,96.47
2022-09-20T01:08:08.816Z,96.42
2022-09-20T01:10:37.020Z,96.56
2022-09-20T01:13:05.646Z,96.72
2022-09-20T01:15:35.274Z,96.46
2022-09-20T01:18:04.676Z,97.22
2022-09-20T01:20:34.807Z,97.59
2022-09-20T01:23:27.414Z,97.24
2022-09-20T01:26:19.836Z,96.97
2022-09-20T01:28:51.057Z,96.64
2022-09-20T01:31:25.398Z,96.11
2022-09-20T01:33:55.432Z,96.39
2022-09-20T01:36:27.120Z,95.98
2022-09-20T01:39:07.409Z,95.71
2022-09-20T01:41:39.245Z,96.29
2022-09-20T01:44:14.695Z,96.67
2022-09-20T01:46:44.101Z,96.77
2022-09-20T01:49:25.903Z,96.87
2022-09-20T01:52:31.662Z,97.44
2022-09-20T01:55:49.972Z,96.97
2022-09-20T01:58:40.339Z,97.17
2022-09-20T02:01:31.170Z,97.37
2022-09-20T02:04:23.132Z,97.52
2022-09-20T02:07:06.812Z,97.31
2022-09-20T02:09:44.631Z,97.69
2022-09-20T02:12:33.538Z,97.37
2022-09-20T02:15:09.958Z,97.07
2022-09-20T02:17:50.077Z,97.68
2022-09-20T02:20:32.563Z,97.79
2022-09-20T02:23:21.810Z,97.65
2022-09-20T02:26:04.224Z,96.84
2022-09-20T02:28:49.318Z,97.09
2022-09-20T02:31:24.054Z,96.88
2022-09-20T02:34:12.625Z,97.91
2022-09-20T02:36:47.764Z,97.81
2022-09-20T02:39:18.464Z,97.55
2022-09-20T02:42:04.879Z,97.74
2022-09-20T02:44:49.023Z,97.25
2022-09-20T02:47:24.317Z,97.40
2022-09-20T02:50:21.950Z,97.29
2022-09-20T02:53:04.460Z,97.51
2022-09-20T02:55:41.643Z,96.98
2022-09-20T02:58:24.838Z,96.87
2022-09-20T03:01:02.494Z,96.51
2022-09-20T03:03:40.963Z,96.50
2022-09-20T03:06:18.769Z,96.06
2022-09-20T03:08:55.106Z,96.34
2022-09-20T03:11:31.792Z,97.39
2022-09-20T03:14:14.685Z,97.18
2022-09-20T03:16:52.657Z,96.54
2022-09-20T03:19:34.235Z,96.75
2022-09-20T03:22:15.773Z,96.52
2022-09-20T03:24:58.376Z,95.85
2022-09-20T03:27:33.115Z,95.64
2022-09-20T03:30:17.657Z,95.59
2022-09-20T03:32:56.316Z,95.78
2022-09-20T03:35:36.406Z,96.19
2022-09-20T03:38:20.550Z,95.88
2022-09-20T03:41:08.693Z,95.62
2022-09-20T03:43:49.193Z,95.96
2022-09-20T03:46:19.285Z,95.04
2022-09-20T03:49:20.456Z,95.34
2022-09-20T03:52:02.047Z,95.63
2022-09-20T03:55:03.950Z,95.49
2022-09-20T03:57:56.196Z,95.20
2022-09-20T04:00:31.727Z,95.21
2022-09-20T04:03:11.938Z,95.18
2022-09-20T04:05:51.395Z,95.56
2022-09-20T04:08:33.936Z,95.66
2022-09-20T04:11:11.483Z,95.08
2022-09-20T04:13:41.173Z,96.27
2022-09-20T04:16:19.817Z,95.97
2022-09-20T04:18:52.973Z,96.06
2022-09-20T04:21:25.839Z,96.46
2022-09-20T04:24:00.724Z,96.12
2022-09-20T04:26:31.624Z,96.12
2022-09-20T04:29:03.214Z,95.62
2022-09-20T04:31:38.168Z,95.38
2022-09-20T04:34:11.858Z,95.48
2022-09-20T04:36:57.767Z,96.07
2022-09-20T04:39:36.549Z,96.14
2022-09-20T04:42:42.716Z,96.15
2022-09-20T04:48:38.714Z,95.77
2022-09-20T04:51:42.828Z,96.01
2022-09-20T04:54:44.060Z,95.79
2022-09-20T04:57:34.343Z,95.82
2022-09-20T05:00:08.975Z,96.60
2022-09-20T05:03:11.061Z,96.24
2022-09-20T05:05:56.836Z,96.18
2022-09-20T05:09:01.351Z,96.40
2022-09-20T05:12:04.437Z,96.16
2022-09-20T05:15:01.323Z,96.15
2022-09-20T05:17:39.606Z,96.00
2022-09-20T05:20:43.658Z,94.93
2022-09-20T05:23:49.767Z,95.46
2022-09-20T05:26:27.603Z,95.88
2022-09-20T05:29:03.363Z,96.00
2022-09-20T05:31:38.102Z,96.48
2022-09-20T05:34:16.380Z,94.34
2022-09-20T05:36:54.413Z,94.86
2022-09-20T05:39:33.086Z,95.65
2022-09-20T05:42:09.478Z,95.38
2022-09-20T05:44:54.296Z,94.74
2022-09-20T05:47:32.453Z,94.79
2022-09-20T05:50:15.135Z,95.12
2022-09-20T05:52:52.312Z,95.65
2022-09-20T05:55:43.298Z,96.54
2022-09-20T05:58:31.742Z,96.53
2022-09-20T06:01:05.277Z,96.70
2022-09-20T06:03:41.487Z,96.70
2022-09-20T06:06:22.962Z,96.58
2022-09-20T06:09:23.695Z,95.98
2022-09-20T06:12:23.433Z,95.66
2022-09-20T06:15:01.739Z,95.19
2022-09-20T06:17:34.196Z,96.15
2022-09-20T06:20:14.553Z,95.22
2022-09-20T06:22:45.139Z,94.38
2022-09-20T06:25:20.004Z,97.94
2022-09-20T06:27:54.555Z,95.55
2022-09-20T06:30:26.902Z,91.49
2022-09-20T06:32:56.456Z,90.35
2022-09-20T06:35:27.186Z,91.33
2022-09-20T06:38:19.891Z,91.55
2022-09-20T06:41:08.643Z,90.50
2022-09-20T06:43:41.498Z,92.48
2022-09-20T06:46:10.210Z,90.87
2022-09-20T06:48:39.805Z,90.72
2022-09-20T06:51:08.317Z,90.75
2022-09-20T06:53:39.589Z,89.47
2022-09-20T06:56:09.428Z,87.04
2022-09-20T06:58:38.253Z,86.92
2022-09-20T07:01:06.063Z,88.32
2022-09-20T07:03:33.656Z,88.08
2022-09-20T07:06:02.077Z,87.52
2022-09-20T07:08:29.588Z,86.46
2022-09-20T07:10:57.157Z,85.79
2022-09-20T07:13:25.272Z,85.21
2022-09-20T07:16:01.088Z,85.55
2022-09-20T07:18:29.138Z,84.57
2022-09-20T07:20:58.676Z,84.47
2022-09-20T07:23:26.349Z,82.21
2022-09-20T07:25:54.552Z,83.46
2022-09-20T07:28:22.086Z,83.89
2022-09-20T07:30:49.872Z,82.95
2022-09-20T07:33:21.423Z,83.46
2022-09-20T07:35:49.795Z,82.03
2022-09-20T07:38:17.896Z,82.10
2022-09-20T07:40:46.170Z,83.05
2022-09-20T07:43:13.992Z,81.37
2022-09-20T07:45:41.942Z,81.56
2022-09-20T07:48:09.571Z,81.52
2022-09-20T07:50:38.615Z,81.96
2022-09-20T07:53:06.180Z,82.74
2022-09-20T07:55:34.681Z,83.60
2022-09-20T07:58:02.184Z,84.22
2022-09-20T08:00:29.824Z,85.46
2022-09-20T08:03:01.167Z,84.28
2022-09-20T08:05:28.699Z,79.46
2022-09-20T08:07:57.688Z,77.75
2022-09-20T08:10:26.376Z,77.50
2022-09-20T08:15:42.402Z,77.43
2022-09-20T08:18:11.723Z,75.71
2022-09-20T08:20:39.680Z,75.59
2022-09-20T08:23:23.043Z,75.97
2022-09-20T08:25:51.173Z,77.43
2022-09-20T08:28:18.704Z,76.33
2022-09-20T08:30:46.212Z,75.83
2022-09-20T08:33:13.848Z,75.00
2022-09-20T08:35:41.456Z,73.57
2022-09-20T08:41:01.647Z,70.80
2022-09-20T08:43:34.847Z,70.91
2022-09-20T08:46:05.951Z,70.01
2022-09-20T08:48:34.960Z,70.36
2022-09-20T08:51:05.672Z,69.50
2022-09-20T08:53:35.683Z,66.57
2022-09-20T08:56:04.592Z,66.23
2022-09-20T08:58:32.371Z,65.87
2022-09-20T09:01:00.098Z,63.96
2022-09-20T09:03:28.195Z,65.79
2022-09-20T09:05:58.055Z,65.26
2022-09-20T09:08:29.252Z,63.98
2022-09-20T09:11:04.628Z,63.37
2022-09-20T09:13:36.671Z,64.97
2022-09-20T09:16:11.719Z,64.83
2022-09-20T09:18:41.970Z,64.18
2022-09-20T09:21:18.012Z,63.36
2022-09-20T09:23:51.760Z,60.94
2022-09-20T09:26:23.270Z,61.67
2022-09-20T09:29:10.924Z,61.65
2022-09-20T09:31:39.640Z,60.74
2022-09-20T09:34:24.530Z,61.07
2022-09-20T09:36:52.129Z,59.19
2022-09-20T09:39:25.297Z,55.42
2022-09-20T09:41:54.272Z,57.20
2022-09-20T09:44:24.584Z,56.32
2022-09-20T09:46:53.430Z,58.21
2022-09-20T09:49:22.957Z,56.57
2022-09-20T09:52:14.244Z,55.52
2022-09-20T09:54:46.894Z,52.96
2022-09-20T09:57:31.858Z,51.42
2022-09-20T10:00:18.669Z,52.77
2022-09-20T10:03:08.131Z,54.68
2022-09-20T10:05:45.096Z,52.06
2022-09-20T10:08:26.596Z,53.91
2022-09-20T10:11:06.983Z,52.01
2022-09-20T10:13:43.150Z,50.68
2022-09-20T10:16:21.847Z,49.10
2022-09-20T10:18:56.450Z,46.99
2022-09-20T10:21:38.960Z,46.34
2022-09-20T10:24:20.676Z,47.24
2022-09-20T10:27:02.616Z,47.46
2022-09-20T10:29:43.171Z,49.09
2022-09-20T10:32:26.403Z,49.10
2022-09-20T10:35:07.032Z,49.17
2022-09-20T10:37:49.502Z,50.67
2022-09-20T10:40:49.263Z,50.20
2022-09-20T10:43:27.885Z,51.24
2022-09-20T10:46:32.738Z,51.96
2022-09-20T10:49:03.311Z,51.16
2022-09-20T10:51:43.074Z,49.28
2022-09-20T10:54:23.695Z,49.75
2022-09-20T10:56:56.160Z,50.22
2022-09-20T10:59:39.911Z,46.86
2022-09-20T11:02:19.463Z,46.21
2022-09-20T11:05:02.863Z,45.67
2022-09-20T11:07:43.106Z,44.56
2022-09-20T11:10:17.601Z,43.35
2022-09-20T11:12:51.212Z,45.70
2022-09-20T11:15:25.013Z,45.48
2022-09-20T11:18:03.836Z,44.08
2022-09-20T11:20:36.783Z,46.89
2022-09-20T11:23:12.208Z,45.31
2022-09-20T11:25:44.388Z,46.51
2022-09-20T11:28:19.341Z,45.35
2022-09-20T11:30:55.634Z,45.77
2022-09-20T11:33:29.745Z,46.02
2022-09-20T11:36:00.751Z,44.95
2022-09-20T11:38:36.440Z,43.52
2022-09-20T11:41:10.137Z,42.13
2022-09-20T11:43:42.693Z,40.16
2022-09-20T11:46:14.867Z,39.45
2022-09-20T11:48:50.356Z,40.09
2022-09-20T11:51:35.193Z,37.52
2022-09-20T11:54:27.683Z,37.39
2022-09-20T11:56:58.468Z,37.64
2022-09-20T11:59:31.287Z,38.64
2022-09-20T12:02:01.954Z,39.82
2022-09-20T12:04:36.006Z,41.96
2022-09-20T12:07:11.518Z,43.06
2022-09-20T12:09:41.945Z,40.66
2022-09-20T12:12:23.969Z,41.23
2022-09-20T12:14:56.218Z,40.69
2022-09-20T12:18:04.334Z,40.42
2022-09-20T12:21:15.617Z,40.20
2022-09-20T12:24:23.730Z,39.22
2022-09-20T12:26:55.784Z,38.82
2022-09-20T12:29:55.501Z,38.75
2022-09-20T12:32:56.210Z,39.74
2022-09-20T12:36:17.050Z,39.47
2022-09-20T12:38:52.808Z,37.45
2022-09-20T12:41:28.362Z,37.74
2022-09-20T12:44:03.936Z,37.05
2022-09-20T12:46:53.690Z,36.91
2022-09-20T12:49:51.434Z,34.38
2022-09-20T12:52:53.370Z,32.60
2022-09-20T12:55:45.883Z,34.84
2022-09-20T12:58:25.299Z,38.25
2022-09-20T13:01:31.648Z,41.91
2022-09-20T13:04:37.442Z,43.21
2022-09-20T13:07:34.007Z,43.34
2022-09-20T13:10:06.465Z,43.06
2022-09-20T13:12:40.241Z,44.71
2022-09-20T13:15:15.780Z,43.68
2022-09-20T13:17:45.177Z,44.08
2022-09-20T13:20:20.199Z,43.60
2022-09-20T13:22:49.623Z,43.29
2022-09-20T13:25:20.286Z,41.96
2022-09-20T13:27:51.861Z,39.99
2022-09-20T13:30:21.511Z,40.17
2022-09-20T13:32:50.088Z,39.93
2022-09-20T13:35:19.962Z,38.41
2022-09-20T13:37:53.532Z,36.23
2022-09-20T13:40:22.768Z,35.67
2022-09-20T13:43:12.989Z,36.51
2022-09-20T13:45:43.268Z,36.46
2022-09-20T13:48:11.105Z,34.36
2022-09-20T13:50:45.795Z,31.98
2022-09-20T13:53:39.376Z,29.95
2022-09-20T13:56:12.320Z,28.54
2022-09-20T13:58:39.896Z,29.95
2022-09-20T14:01:20.843Z,31.64
2022-09-20T14:03:48.762Z,30.07
2022-09-20T14:06:16.833Z,28.03
2022-09-20T14:08:48.878Z,28.26
2022-09-20T14:11:19.608Z,27.13
2022-09-20T14:13:49.607Z,25.91
2022-09-20T14:16:19.485Z,24.96
2022-09-20T14:18:49.095Z,23.35
2022-09-20T14:21:23.523Z,23.83
2022-09-20T14:23:54.176Z,24.26
2022-09-20T14:26:25.616Z,25.71
2022-09-20T14:28:53.482Z,27.64
2022-09-20T14:31:24.415Z,30.75
2022-09-20T14:33:55.543Z,33.05
2022-09-20T14:36:25.047Z,33.17
2022-09-20T14:38:56.635Z,33.67
2022-09-20T14:41:28.711Z,35.38
2022-09-20T14:43:59.416Z,35.60
2022-09-20T14:46:33.835Z,36.95
2022-09-20T14:49:21.937Z,38.63
2022-09-20T14:51:49.678Z,39.04
2022-09-20T14:54:26.881Z,39.41
2022-09-20T14:56:57.502Z,39.35
2022-09-20T14:59:26.663Z,39.16
2022-09-20T15:02:01.791Z,39.83
2022-09-20T15:04:31.504Z,40.82
2022-09-20T15:07:02.893Z,41.19
2022-09-20T15:09:31.736Z,40.83
2022-09-20T15:12:04.370Z,40.38
2022-09-20T15:14:36.528Z,40.79
2022-09-20T15:17:05.142Z,40.34
2022-09-20T15:19:32.735Z,40.39
2022-09-20T15:22:00.376Z,40.94
2022-09-20T15:24:28.076Z,41.69
2022-09-20T15:26:57.056Z,43.05
2022-09-20T15:29:24.602Z,42.68
2022-09-20T15:31:52.149Z,44.60
2022-09-20T15:34:19.721Z,44.19
2022-09-20T15:36:48.608Z,44.65
2022-09-20T15:39:16.203Z,41.73
2022-09-20T15:41:45.004Z,36.94
2022-09-20T15:44:17.094Z,35.13
2022-09-20T15:46:44.704Z,35.50
2022-09-20T15:49:13.340Z,35.09
2022-09-20T15:51:40.884Z,36.10
2022-09-20T15:54:09.422Z,35.72
2022-09-20T15:56:40.132Z,37.25
2022-09-20T15:59:09.515Z,37.55
2022-09-20T16:01:39.964Z,36.87
2022-09-20T16:04:08.971Z,36.05
2022-09-20T16:06:37.616Z,34.33
2022-09-20T16:09:05.987Z,35.53
2022-09-20T16:11:33.551Z,36.84
2022-09-20T16:14:02.017Z,37.85
2022-09-20T16:16:36.090Z,38.99
2022-09-20T16:19:20.560Z,39.48
2022-09-20T16:21:53.771Z,37.10
2022-09-20T16:24:25.501Z,35.08
2022-09-20T16:26:53.032Z,36.76
2022-09-20T16:29:21.968Z,37.94
2022-09-20T16:31:51.098Z,39.70
2022-09-20T16:34:21.918Z,42.74
2022-09-20T16:36:51.039Z,44.16
2022-09-20T16:39:27.425Z,44.26
2022-09-20T16:41:57.644Z,45.79
2022-09-20T16:44:25.524Z,47.03
2022-09-20T16:46:53.204Z,48.39
2022-09-20T16:49:23.114Z,50.66
2022-09-20T16:51:50.685Z,50.81
2022-09-20T16:54:19.479Z,51.02
2022-09-20T16:56:48.675Z,50.42
2022-09-20T16:59:18.041Z,50.72
2022-09-20T17:01:46.206Z,51.38
2022-09-20T17:04:14.879Z,50.62
2022-09-20T17:06:44.140Z,50.70
2022-09-20T17:09:11.984Z,51.21
2022-09-20T17:11:41.656Z,52.23
2022-09-20T17:14:09.997Z,52.23
2022-09-20T17:16:39.949Z,52.04
2022-09-20T17:19:09.323Z,52.52
2022-09-20T17:21:38.943Z,52.89
2022-09-20T17:24:08.409Z,53.72
2022-09-20T17:26:38.674Z,54.20
2022-09-20T17:29:09.748Z,56.66
2022-09-20T17:31:41.496Z,57.35
2022-09-20T17:34:10.949Z,60.70
2022-09-20T17:36:41.632Z,62.86
2022-09-20T17:39:12.696Z,64.01
2022-09-20T17:41:41.158Z,65.66
2022-09-20T17:44:09.925Z,65.64
2022-09-20T17:46:39.251Z,65.64
2022-09-20T17:49:09.405Z,66.39
2022-09-20T17:51:38.851Z,67.39
2022-09-20T17:54:07.552Z,67.39
2022-09-20T17:56:37.011Z,68.82
2022-09-20T17:59:06.017Z,68.44
2022-09-20T18:01:35.342Z,69.00
2022-09-20T18:04:03.781Z,69.81
2022-09-20T18:06:33.010Z,70.50
2022-09-20T18:09:02.502Z,70.56
2022-09-20T18:11:32.468Z,70.76
2022-09-20T18:14:02.141Z,71.15
2022-09-20T18:16:30.798Z,72.05
2022-09-20T18:18:59.675Z,71.64
2022-09-20T18:21:28.788Z,72.78
2022-09-20T18:23:57.176Z,73.13
2022-09-20T18:26:26.547Z,73.58
2022-09-20T18:28:58.703Z,73.93
2022-09-20T18:31:32.094Z,73.19
2022-09-20T18:34:00.647Z,73.49
2022-09-20T18:36:29.426Z,73.26
2022-09-20T18:38:58.191Z,74.25
2022-09-20T18:41:27.585Z,74.52
2022-09-20T18:43:55.873Z,74.79
2022-09-20T18:46:24.874Z,74.63
2022-09-20T18:48:57.048Z,75.28
2022-09-20T18:51:25.233Z,75.58
2022-09-20T18:53:53.484Z,76.58
2022-09-20T18:56:24.059Z,76.89
2022-09-20T18:58:52.923Z,77.25
2022-09-20T19:01:50.352Z,77.67
2022-09-20T19:04:30.315Z,77.66
2022-09-20T19:07:09.375Z,78.19
2022-09-20T19:09:44.284Z,79.16
2022-09-20T19:12:21.676Z,79.31
2022-09-20T19:15:12.733Z,79.98
2022-09-20T19:17:58.528Z,79.38
2022-09-20T19:20:33.880Z,80.24
2022-09-20T19:23:17.047Z,80.90
2022-09-20T19:25:47.954Z,80.45
2022-09-20T19:28:16.935Z,81.16
2022-09-20T19:30:47.220Z,80.99
2022-09-20T19:33:18.185Z,81.44
2022-09-20T19:35:51.496Z,81.67
2022-09-20T19:38:27.601Z,81.75
2022-09-20T19:41:09.079Z,81.56
2022-09-20T19:43:49.971Z,81.60
2022-09-20T19:46:34.123Z,82.30
2022-09-20T19:49:08.990Z,82.34
2022-09-20T19:51:39.376Z,82.95
2022-09-20T19:54:10.273Z,83.68
2022-09-20T19:56:48.508Z,82.58
2022-09-20T19:59:17.611Z,83.29
2022-09-20T20:01:45.853Z,82.70
2022-09-20T20:04:16.233Z,83.38
2022-09-20T20:06:55.303Z,83.49
2022-09-20T20:09:32.472Z,83.81
2022-09-20T20:12:07.776Z,83.62
2022-09-20T20:14:45.519Z,83.90
2022-09-20T20:17:25.835Z,83.67
2022-09-20T20:20:16.308Z,84.00
2022-09-20T20:23:14.737Z,84.42
2022-09-20T20:25:50.063Z,85.62
2022-09-20T20:28:17.619Z,84.94
2022-09-20T20:30:45.254Z,85.44
2022-09-20T20:33:15.748Z,85.52
2022-09-20T20:35:43.452Z,85.27
2022-09-20T20:38:12.631Z,85.61
2022-09-20T20:40:40.833Z,85.31
2022-09-20T20:43:09.228Z,85.58
2022-09-20T20:45:38.603Z,85.65
2022-09-20T20:48:06.137Z,85.61
2022-09-20T20:50:33.801Z,85.19
2022-09-20T20:53:01.321Z,85.99
2022-09-20T20:55:31.012Z,86.16
2022-09-20T20:57:59.513Z,85.72
2022-09-20T21:00:28.306Z,86.66
2022-09-20T21:02:58.182Z,85.61
2022-09-20T21:05:25.778Z,85.97
2022-09-20T21:07:53.574Z,86.46
2022-09-20T21:10:21.777Z,86.98
2022-09-20T21:12:53.015Z,86.39
2022-09-20T21:15:21.284Z,86.87
2022-09-20T21:17:51.517Z,86.62
2022-09-20T21:20:19.108Z,87.09
2022-09-20T21:22:46.771Z,88.52
2022-09-20T21:25:14.472Z,89.11
2022-09-20T21:27:42.014Z,88.90
2022-09-20T21:30:12.180Z,88.79
2022-09-20T21:32:39.700Z,88.49
2022-09-20T21:35:07.808Z,88.75
2022-09-20T21:37:35.342Z,89.21
2022-09-20T21:40:03.624Z,89.65
2022-09-20T21:42:31.165Z,90.09
2022-09-20T21:44:58.676Z,90.09
2022-09-20T21:47:27.495Z,89.66
2022-09-20T21:49:55.463Z,89.71
2022-09-20T21:52:22.956Z,89.82
2022-09-20T21:54:50.516Z,89.70
2022-09-20T21:57:18.138Z,89.61
2022-09-20T21:59:45.732Z,89.84
2022-09-20T22:02:13.312Z,89.98
2022-09-20T22:04:42.237Z,90.21
2022-09-20T22:07:09.850Z,90.72
2022-09-20T22:09:37.376Z,91.06
2022-09-20T22:12:05.134Z,91.36
2022-09-20T22:14:32.637Z,91.11
2022-09-20T22:17:00.146Z,90.91
2022-09-20T22:19:27.724Z,91.07
2022-09-20T22:21:56.571Z,91.37
2022-09-20T22:24:24.068Z,91.21
2022-09-20T22:26:53.505Z,91.48
2022-09-20T22:29:21.903Z,91.85
2022-09-20T22:31:50.758Z,91.64
2022-09-20T22:34:19.675Z,92.43
2022-09-20T22:36:47.729Z,92.75
2022-09-20T22:39:17.366Z,92.45
2022-09-20T22:41:47.609Z,92.91
2022-09-20T22:44:15.439Z,92.07
2022-09-20T22:46:43.147Z,92.12
2022-09-20T22:49:10.709Z,92.35
2022-09-20T22:51:38.752Z,92.78
2022-09-20T22:54:08.043Z,92.78
2022-09-20T22:56:37.637Z,92.66
2022-09-20T22:59:07.059Z,92.52
2022-09-20T23:01:36.082Z,92.67
2022-09-20T23:04:07.664Z,92.55
2022-09-20T23:06:37.725Z,92.89
2022-09-20T23:09:08.342Z,92.86
2022-09-20T23:11:38.015Z,93.17
2022-09-20T23:14:06.890Z,93.52
2022-09-20T23:16:36.867Z,93.27
2022-09-20T23:19:07.160Z,92.82
2022-09-20T23:21:35.496Z,93.37
2022-09-20T23:24:05.003Z,93.19
2022-09-20T23:26:34.561Z,93.44
2022-09-20T23:29:06.128Z,93.74
2022-09-20T23:31:36.375Z,93.56
2022-09-20T23:34:06.063Z,93.64
2022-09-20T23:36:36.182Z,94.08
2022-09-20T23:39:03.937Z,94.17
2022-09-20T23:41:31.556Z,93.79
2022-09-20T23:43:59.560Z,93.54
2022-09-20T23:46:28.637Z,93.00
2022-09-20T23:48:56.182Z,92.12
2022-09-20T23:51:26.159Z,92.04
2022-09-20T23:53:54.241Z,92.28
2022-09-20T23:56:23.667Z,92.42
2022-09-20T23:58:51.680Z,92.66
